臺北終端管制區 - 桃園掃描雷達席

METAR RCTP 201930Z 04013KT 9999 FEW015 BKN030 22/16 Q1014 NOSIG RMK A2996(V)=

站台狀態:Online
最後更新:2019-10-21 03:30:02